Time;durP1;ratioP1;P1;durP2;ratioP2;P2;SDS_P1;SDS_P2;PMS_P1;PMS_P2;Temp;Humidity;BMP_temperature;BMP_pressure;BME280_temperature;BME280_humidity;BME280_pressure;Samples;Min_cycle;Max_cycle;Signal;HPM_P1;HPM_P2
2022/12/25 00:00:49;;;;;;;8.27;1.67;;;9.30;99.90;;;;;;4995031;28;20210;-73
2022/12/25 00:03:15;;;;;;;9.33;1.53;;;9.20;99.90;;;;;;5005197;28;20254;-74
2022/12/25 00:05:41;;;;;;;9.87;1.10;;;9.20;99.90;;;;;;4994792;28;20544;-74
2022/12/25 00:08:06;;;;;;;9.60;1.63;;;9.30;99.90;;;;;;4991772;28;20180;-74
2022/12/25 00:10:32;;;;;;;9.60;1.13;;;9.30;99.90;;;;;;4996612;28;20212;-74
2022/12/25 00:12:58;;;;;;;8.57;1.33;;;9.20;99.90;;;;;;4973159;28;20203;-74
2022/12/25 00:15:23;;;;;;;11.27;2.37;;;9.30;99.90;;;;;;4972262;28;20528;-74
2022/12/25 00:17:49;;;;;;;15.00;1.53;;;9.30;99.90;;;;;;5005036;28;20231;-74
2022/12/25 00:20:14;;;;;;;10.37;1.73;;;9.20;99.90;;;;;;5011837;28;20224;-74
2022/12/25 00:22:40;;;;;;;11.47;1.47;;;9.20;99.90;;;;;;5011690;28;20193;-74
2022/12/25 00:25:06;;;;;;;10.90;1.50;;;9.20;99.90;;;;;;5012018;28;20180;-73
2022/12/25 00:27:32;;;;;;;14.70;2.53;;;9.10;99.90;;;;;;5012042;28;20181;-74
2022/12/25 00:29:59;;;;;;;12.40;2.13;;;9.20;99.90;;;;;;5011648;28;20308;-74
2022/12/25 00:32:24;;;;;;;17.90;1.50;;;9.10;99.90;;;;;;5011051;28;20485;-73
2022/12/25 00:34:50;;;;;;;11.90;2.50;;;9.10;99.90;;;;;;5012363;28;20413;-73
2022/12/25 00:37:15;;;;;;;15.20;1.70;;;9.10;99.90;;;;;;5011921;28;20683;-74
2022/12/25 00:39:40;;;;;;;15.00;2.07;;;9.10;99.90;;;;;;5011944;28;20264;-73
2022/12/25 00:42:18;;;;;;;15.90;2.00;;;9.20;99.90;;;;;;5011639;28;20202;-74
2022/12/25 00:44:48;;;;;;;14.70;1.90;;;9.10;99.90;;;;;;5012004;28;20177;-74
2022/12/25 00:47:14;;;;;;;14.77;2.20;;;9.10;99.90;;;;;;5012053;28;20421;-74
2022/12/25 00:49:40;;;;;;;21.93;1.90;;;9.10;99.90;;;;;;5011842;28;20425;-74
2022/12/25 00:52:06;;;;;;;15.13;1.67;;;9.20;99.90;;;;;;5000645;28;20522;-73
2022/12/25 00:54:31;;;;;;;15.23;1.70;;;9.20;99.90;;;;;;4992236;28;20214;-73
2022/12/25 00:56:57;;;;;;;13.80;2.37;;;9.20;99.90;;;;;;4992311;28;20421;-74
2022/12/25 00:59:22;;;;;;;17.80;2.20;;;9.20;99.90;;;;;;4991990;28;20189;-74
2022/12/25 01:01:48;;;;;;;15.37;2.13;;;9.30;99.90;;;;;;4974462;28;20614;-73
2022/12/25 01:04:14;;;;;;;17.20;1.97;;;9.20;99.90;;;;;;4992072;28;20186;-73
2022/12/25 01:06:39;;;;;;;15.23;1.57;;;9.30;99.90;;;;;;4992005;28;20863;-73
2022/12/25 01:11:49;;;;;;;14.47;1.90;;;9.30;99.90;;;;;;5009544;28;20693;-73
2022/12/25 01:14:15;;;;;;;13.73;1.90;;;9.30;99.90;;;;;;5006847;28;20426;-74
2022/12/25 01:16:40;;;;;;;15.53;2.30;;;9.30;99.90;;;;;;5000649;28;20194;-74
2022/12/25 01:19:06;;;;;;;11.60;1.83;;;9.20;99.90;;;;;;5010133;28;20209;-73
2022/12/25 01:21:32;;;;;;;13.37;1.80;;;9.20;99.90;;;;;;4989278;28;20215;-73
2022/12/25 01:23:57;;;;;;;12.90;1.90;;;9.30;99.90;;;;;;5000548;28;20556;-74
2022/12/25 01:26:25;;;;;;;11.50;2.20;;;9.30;99.90;;;;;;5009721;28;20184;-74
2022/12/25 01:28:51;;;;;;;15.47;1.40;;;9.30;99.90;;;;;;5002072;28;20181;-74
2022/12/25 01:31:19;;;;;;;11.67;1.93;;;9.30;99.90;;;;;;5009095;28;20499;-73
2022/12/25 01:33:45;;;;;;;15.10;2.20;;;9.20;99.90;;;;;;5009427;28;20512;-74
2022/12/25 01:36:16;;;;;;;17.83;2.47;;;9.20;99.90;;;;;;5008422;28;20560;-73
2022/12/25 01:38:42;;;;;;;17.40;2.53;;;9.20;99.90;;;;;;5009769;28;20186;-73
2022/12/25 01:41:10;;;;;;;21.43;3.50;;;9.20;99.90;;;;;;5002600;28;20437;-73
2022/12/25 01:43:59;;;;;;;14.10;3.37;;;9.20;99.90;;;;;;5002349;28;21020;-73
2022/12/25 01:46:25;;;;;;;12.27;3.80;;;9.20;99.90;;;;;;5004045;28;20433;-73
2022/12/25 01:48:52;;;;;;;13.23;3.00;;;9.20;99.90;;;;;;5009642;28;20761;-74
2022/12/25 01:51:34;;;;;;;11.73;3.70;;;9.10;99.90;;;;;;5009087;28;20575;-73
2022/12/25 01:54:05;;;;;;;14.47;4.60;;;9.20;99.90;;;;;;4998378;28;20421;-74
2022/12/25 01:56:33;;;;;;;12.97;4.57;;;9.20;99.90;;;;;;5000228;28;20863;-74
2022/12/25 01:59:00;;;;;;;14.87;5.10;;;9.20;99.90;;;;;;5002987;28;20564;-74
2022/12/25 03:32:18;;;;;;;12.43;4.13;;;8.90;99.90;;;;;;5494067;23;20487;-75
2022/12/25 03:38:13;;;;;;;20.73;5.37;;;8.90;99.90;;;;;;5013505;28;20402;-75
2022/12/25 04:37:11;;;;;;;11.93;3.37;;;8.80;99.90;;;;;;5011760;28;20510;-75
2022/12/25 04:39:36;;;;;;;11.90;3.10;;;8.80;99.90;;;;;;5012099;28;20504;-75
2022/12/25 04:42:02;;;;;;;11.17;2.80;;;8.80;99.90;;;;;;5011655;28;20574;-75
2022/12/25 04:44:28;;;;;;;11.97;3.20;;;8.80;99.90;;;;;;5011770;28;20180;-75
2022/12/25 04:46:53;;;;;;;12.10;3.73;;;8.80;99.90;;;;;;5011685;28;20185;-75
2022/12/25 04:49:19;;;;;;;9.60;3.67;;;8.80;99.90;;;;;;5011344;28;20280;-75
2022/12/25 04:51:44;;;;;;;10.77;3.10;;;8.80;99.90;;;;;;5011444;28;20591;-75
2022/12/25 04:54:10;;;;;;;12.30;4.00;;;8.90;99.90;;;;;;5011364;28;20187;-75
2022/12/25 04:56:35;;;;;;;4.97;2.67;;;8.90;99.90;;;;;;5011908;28;20259;-75
2022/12/25 04:59:01;;;;;;;7.07;3.30;;;8.90;99.90;;;;;;5011300;28;20196;-75
2022/12/25 05:01:26;;;;;;;7.00;2.27;;;8.90;99.90;;;;;;5011555;28;20220;-74
2022/12/25 05:03:52;;;;;;;7.77;2.70;;;8.90;99.90;;;;;;5011444;28;20199;-74
2022/12/25 05:06:17;;;;;;;5.37;2.80;;;8.90;99.90;;;;;;5011723;28;20630;-74
2022/12/25 05:08:43;;;;;;;8.60;2.97;;;8.90;99.90;;;;;;5011611;28;20180;-74
2022/12/25 05:11:13;;;;;;;10.10;2.67;;;8.90;99.90;;;;;;5011161;28;20689;-74
2022/12/25 05:13:39;;;;;;;9.43;2.27;;;8.90;99.90;;;;;;5011290;28;20176;-75
2022/12/25 05:16:13;;;;;;;9.33;2.20;;;8.90;99.90;;;;;;5011333;28;20519;-74
2022/12/25 05:18:38;;;;;;;12.17;2.33;;;8.90;99.90;;;;;;5011390;28;20586;-74
2022/12/25 05:21:04;;;;;;;11.43;3.10;;;8.90;99.90;;;;;;5011291;28;20540;-76
2022/12/25 05:23:30;;;;;;;10.80;3.03;;;8.90;99.90;;;;;;5011046;28;20190;-75
2022/12/25 05:25:56;;;;;;;11.83;2.40;;;8.90;99.90;;;;;;5011647;28;20655;-74
2022/12/25 05:28:21;;;;;;;9.73;2.53;;;8.90;99.90;;;;;;5010943;28;20475;-74
2022/12/25 05:30:47;;;;;;;12.40;3.30;;;8.90;99.90;;;;;;5011182;28;20625;-74
2022/12/25 05:33:12;;;;;;;13.20;2.90;;;8.90;99.90;;;;;;5011072;28;20657;-74
2022/12/25 05:35:39;;;;;;;12.70;3.03;;;9.00;99.90;;;;;;5011289;28;20178;-74
2022/12/25 05:38:06;;;;;;;14.73;2.87;;;8.90;99.90;;;;;;5013456;28;20655;-74
2022/12/25 05:40:33;;;;;;;14.33;2.50;;;8.90;99.90;;;;;;5015121;28;20434;-75
2022/12/25 05:42:59;;;;;;;11.93;2.60;;;8.90;99.90;;;;;;5014880;28;20483;-75
2022/12/25 05:45:24;;;;;;;11.67;2.40;;;8.90;99.90;;;;;;5015116;28;20408;-75
2022/12/25 05:47:51;;;;;;;12.27;2.67;;;8.90;99.90;;;;;;5015556;28;20185;-75
2022/12/25 05:50:16;;;;;;;15.00;2.90;;;8.90;99.90;;;;;;5014478;28;20176;-75
2022/12/25 05:52:42;;;;;;;13.90;2.50;;;8.90;99.90;;;;;;5014730;28;20464;-75
2022/12/25 05:55:07;;;;;;;16.33;2.77;;;8.90;99.90;;;;;;5014804;28;20187;-73
2022/12/25 05:57:33;;;;;;;18.80;2.60;;;8.90;99.90;;;;;;5014546;28;20221;-73
2022/12/25 05:59:58;;;;;;;17.27;2.80;;;9.00;99.90;;;;;;5014001;28;20209;-73
2022/12/25 06:02:24;;;;;;;17.97;2.67;;;9.00;99.90;;;;;;5014004;28;20229;-73
2022/12/25 06:04:50;;;;;;;18.50;2.90;;;9.00;99.90;;;;;;5014655;28;20268;-73
2022/12/25 06:07:15;;;;;;;17.80;2.73;;;9.10;99.90;;;;;;5014619;28;20256;-73
2022/12/25 06:09:41;;;;;;;18.37;3.03;;;9.10;99.90;;;;;;5014654;28;20468;-71
2022/12/25 06:12:06;;;;;;;18.00;2.13;;;9.10;99.90;;;;;;5013852;28;20288;-71
2022/12/25 06:14:32;;;;;;;18.03;2.27;;;9.10;99.90;;;;;;5014112;28;20210;-70
2022/12/25 06:16:57;;;;;;;19.37;2.17;;;9.10;99.90;;;;;;5014177;28;20636;-70
2022/12/25 06:19:23;;;;;;;16.90;2.10;;;9.10;99.90;;;;;;5014000;28;20182;-71
2022/12/25 06:21:52;;;;;;;16.70;2.27;;;9.10;99.90;;;;;;5013763;28;20283;-71
2022/12/25 06:24:17;;;;;;;22.07;2.83;;;9.10;99.90;;;;;;5013958;28;20186;-70
2022/12/25 06:26:43;;;;;;;19.13;2.53;;;9.10;99.90;;;;;;5013714;28;20433;-71
2022/12/25 06:29:08;;;;;;;23.80;2.67;;;9.20;99.90;;;;;;5013817;28;20186;-71
2022/12/25 06:31:34;;;;;;;21.57;2.17;;;9.20;99.90;;;;;;5013063;28;20210;-70
2022/12/25 06:33:59;;;;;;;22.63;2.53;;;9.20;99.90;;;;;;5013882;28;20181;-71
2022/12/25 06:36:26;;;;;;;20.83;2.20;;;9.20;99.90;;;;;;5013774;28;20615;-71
2022/12/25 06:38:52;;;;;;;22.47;2.40;;;9.20;99.90;;;;;;5009808;28;20180;-71
2022/12/25 06:41:22;;;;;;;21.77;2.60;;;9.20;99.90;;;;;;5013279;28;21002;-71
2022/12/25 06:43:56;;;;;;;20.50;2.57;;;9.10;99.90;;;;;;5013667;28;20519;-71
2022/12/25 06:46:23;;;;;;;22.43;3.10;;;9.10;99.90;;;;;;5013452;28;20430;-73
2022/12/25 06:48:49;;;;;;;25.90;4.70;;;9.10;99.90;;;;;;5013452;28;20779;-72
2022/12/25 06:51:21;;;;;;;25.20;3.13;;;9.10;99.90;;;;;;5012712;28;20464;-72
2022/12/25 06:53:47;;;;;;;20.40;2.20;;;9.00;99.90;;;;;;4994283;28;20170;-72
2022/12/25 06:56:15;;;;;;;22.40;7.50;;;9.00;99.90;;;;;;5002171;28;20429;-72
2022/12/25 06:58:46;;;;;;;10.83;2.97;;;9.00;99.90;;;;;;5009190;28;20956;-72
2022/12/25 07:01:23;;;;;;;10.80;2.57;;;9.00;99.90;;;;;;5013280;28;20437;-71
2022/12/25 07:03:52;;;;;;;8.68;2.80;;;9.00;99.90;;;;;;5011763;28;20783;-71
2022/12/25 07:06:17;;;;;;;9.57;2.93;;;9.00;99.90;;;;;;5012276;28;20265;-71
2022/12/25 07:08:43;;;;;;;10.70;2.50;;;9.00;99.90;;;;;;5013617;28;20435;-72
2022/12/25 07:11:08;;;;;;;11.03;2.43;;;9.00;99.90;;;;;;5012870;28;20225;-71
2022/12/25 07:13:34;;;;;;;9.20;1.93;;;9.00;99.90;;;;;;5013250;28;20284;-71
2022/12/25 07:16:02;;;;;;;8.73;1.57;;;9.10;99.90;;;;;;5011897;28;20285;-72
2022/12/25 07:18:29;;;;;;;9.00;1.60;;;9.10;99.90;;;;;;5013040;28;20795;-72
2022/12/25 07:20:55;;;;;;;13.23;1.50;;;9.20;99.90;;;;;;5013096;28;20457;-71
2022/12/25 07:23:21;;;;;;;9.50;1.27;;;9.20;99.90;;;;;;5013468;28;20974;-72
2022/12/25 07:25:58;;;;;;;11.13;1.20;;;9.30;99.90;;;;;;5012921;28;20197;-71
2022/12/25 07:28:24;;;;;;;9.93;2.07;;;9.30;99.90;;;;;;5012875;28;20429;-71
2022/12/25 07:30:49;;;;;;;9.63;1.73;;;9.30;99.90;;;;;;5012270;28;20826;-71
2022/12/25 07:33:15;;;;;;;10.50;1.73;;;9.40;99.90;;;;;;5012704;28;20248;-71
2022/12/25 07:35:41;;;;;;;14.07;2.10;;;9.40;99.90;;;;;;5012606;28;20613;-71
2022/12/25 07:38:06;;;;;;;3.63;1.90;;;9.30;99.90;;;;;;5012332;28;20421;-72
2022/12/25 07:40:32;;;;;;;4.40;2.50;;;9.40;99.90;;;;;;5012334;28;20597;-72
2022/12/25 07:42:57;;;;;;;8.17;3.17;;;9.40;99.90;;;;;;5012608;28;20674;-72
2022/12/25 07:45:23;;;;;;;8.10;2.57;;;9.40;99.90;;;;;;5012133;28;20239;-71
2022/12/25 07:47:49;;;;;;;5.30;3.40;;;9.40;99.90;;;;;;5008305;28;20194;-72
2022/12/25 07:50:15;;;;;;;6.10;3.03;;;9.40;99.90;;;;;;5005477;28;20186;-72
2022/12/25 07:52:41;;;;;;;6.00;2.50;;;9.40;99.90;;;;;;5000243;28;20472;-71
2022/12/25 07:55:07;;;;;;;7.53;2.70;;;9.40;99.90;;;;;;4998829;28;20182;-72
2022/12/25 07:57:33;;;;;;;7.57;2.20;;;9.50;99.90;;;;;;5003429;28;20220;-72
2022/12/25 07:59:58;;;;;;;5.73;2.00;;;9.50;99.90;;;;;;5008376;28;20176;-71
2022/12/25 08:02:27;;;;;;;7.90;2.43;;;9.50;99.90;;;;;;5011547;28;20789;-72
2022/12/25 08:04:54;;;;;;;34.00;7.27;;;9.50;99.90;;;;;;5012551;28;20261;-72
2022/12/25 08:07:20;;;;;;;16.63;2.10;;;9.50;99.90;;;;;;5012339;28;20776;-72
2022/12/25 08:09:45;;;;;;;30.93;2.20;;;9.50;99.90;;;;;;5012437;28;20422;-71
2022/12/25 08:12:11;;;;;;;32.90;2.80;;;9.50;99.90;;;;;;5011395;28;20989;-72
2022/12/25 08:14:36;;;;;;;30.03;2.60;;;9.40;99.90;;;;;;5012192;28;20253;-71
2022/12/25 08:17:02;;;;;;;28.33;2.87;;;9.50;99.90;;;;;;5011652;28;20669;-72
2022/12/25 08:19:28;;;;;;;32.93;3.23;;;9.40;99.90;;;;;;5012005;28;20174;-72
2022/12/25 08:21:53;;;;;;;27.40;2.60;;;9.40;99.90;;;;;;5011861;28;20297;-72
2022/12/25 08:24:19;;;;;;;27.63;2.50;;;9.40;99.90;;;;;;5008937;28;20468;-72
2022/12/25 08:26:45;;;;;;;24.10;2.27;;;9.50;99.90;;;;;;5011904;28;20726;-72
2022/12/25 08:29:10;;;;;;;24.73;2.47;;;9.50;99.90;;;;;;5011791;28;20423;-73
2022/12/25 08:31:36;;;;;;;25.10;3.10;;;9.50;99.90;;;;;;5010866;28;20221;-72
2022/12/25 08:34:02;;;;;;;25.70;2.60;;;9.50;99.90;;;;;;5012032;28;20178;-72
2022/12/25 08:36:28;;;;;;;24.57;2.57;;;9.60;99.90;;;;;;5011837;28;20227;-72
2022/12/25 08:38:54;;;;;;;27.20;3.63;;;9.60;99.90;;;;;;5009785;28;20801;-71
2022/12/25 08:41:19;;;;;;;26.77;2.97;;;9.70;99.90;;;;;;4996269;28;20224;-71
2022/12/25 08:43:45;;;;;;;26.63;2.50;;;9.80;99.90;;;;;;5011903;28;20202;-72
2022/12/25 08:46:11;;;;;;;31.50;3.40;;;9.80;99.90;;;;;;5012048;28;20265;-71
2022/12/25 08:48:37;;;;;;;28.80;3.80;;;9.90;99.90;;;;;;5009685;28;20190;-72
2022/12/25 08:51:03;;;;;;;28.47;2.87;;;10.00;99.90;;;;;;5003156;28;20233;-70
2022/12/25 08:53:29;;;;;;;28.17;2.90;;;10.10;99.90;;;;;;5007176;28;20441;-71
2022/12/25 08:55:59;;;;;;;27.83;2.87;;;10.10;99.90;;;;;;4997340;28;20575;-71
2022/12/25 08:58:26;;;;;;;27.30;2.93;;;10.20;99.90;;;;;;4992075;28;20281;-72
2022/12/25 09:00:51;;;;;;;25.57;2.70;;;10.30;99.90;;;;;;5005149;28;20505;-72
2022/12/25 09:03:17;;;;;;;25.57;2.37;;;10.40;99.90;;;;;;5010593;28;20568;-72
2022/12/25 09:05:42;;;;;;;25.73;2.23;;;10.40;99.90;;;;;;5011642;28;20182;-72
2022/12/25 09:08:08;;;;;;;25.57;2.67;;;10.50;99.90;;;;;;5010280;28;20201;-72
2022/12/25 09:10:36;;;;;;;26.77;2.17;;;10.60;99.90;;;;;;5011341;28;20666;-72
2022/12/25 09:13:02;;;;;;;26.67;2.97;;;10.70;99.90;;;;;;5010887;28;20190;-72
2022/12/25 09:15:28;;;;;;;27.37;2.73;;;10.80;99.90;;;;;;5011524;28;20406;-72
2022/12/25 09:17:53;;;;;;;26.73;3.50;;;11.10;99.90;;;;;;5011232;28;20524;-72
2022/12/25 09:20:19;;;;;;;25.57;2.83;;;11.60;99.90;;;;;;5011020;28;20669;-73
2022/12/25 09:22:44;;;;;;;21.43;2.30;;;12.10;99.90;;;;;;5010859;28;20202;-73
2022/12/25 09:25:10;;;;;;;24.23;2.53;;;12.60;99.90;;;;;;5011187;28;20177;-72
2022/12/25 09:27:36;;;;;;;23.43;2.30;;;13.40;99.90;;;;;;5011214;28;20225;-73
2022/12/25 09:30:02;;;;;;;23.70;2.00;;;14.20;99.90;;;;;;5011169;28;20179;-73
2022/12/25 09:32:27;;;;;;;22.90;1.90;;;14.80;99.90;;;;;;5010550;28;20336;-73
2022/12/25 09:34:53;;;;;;;22.60;1.70;;;15.10;99.90;;;;;;5011358;28;20489;-73
2022/12/25 09:37:18;;;;;;;22.93;2.00;;;15.30;99.90;;;;;;5010790;28;20189;-73
2022/12/25 09:39:43;;;;;;;22.20;1.37;;;15.80;99.90;;;;;;5010558;28;20623;-73
2022/12/25 09:42:28;;;;;;;21.93;1.70;;;15.90;99.90;;;;;;5011197;28;20210;-73
2022/12/25 09:45:09;;;;;;;23.37;1.57;;;15.70;99.90;;;;;;5010958;28;20175;-73
2022/12/25 09:47:38;;;;;;;22.27;1.30;;;15.80;99.90;;;;;;5011088;28;20491;-73
2022/12/25 09:50:07;;;;;;;23.07;1.57;;;16.10;99.90;;;;;;5010772;28;20442;-73
2022/12/25 09:52:40;;;;;;;22.90;1.60;;;16.40;99.90;;;;;;5010507;28;20479;-73
2022/12/25 09:55:17;;;;;;;24.17;2.30;;;16.70;99.90;;;;;;5010729;28;20515;-73
2022/12/25 09:57:43;;;;;;;21.80;1.87;;;16.80;99.90;;;;;;5011303;28;20413;-73
2022/12/25 10:00:16;;;;;;;21.77;2.10;;;17.00;99.90;;;;;;5010683;28;20423;-73
2022/12/25 10:03:07;;;;;;;22.23;1.87;;;17.00;99.90;;;;;;5010699;28;20433;-73
2022/12/25 10:05:49;;;;;;;21.50;1.97;;;16.80;99.90;;;;;;5010686;28;20405;-73
2022/12/25 10:08:39;;;;;;;22.70;2.47;;;16.90;99.90;;;;;;4990798;28;20429;-73
2022/12/25 10:11:23;;;;;;;25.03;3.47;;;16.90;99.90;;;;;;5010477;28;20496;-72
2022/12/25 10:13:58;;;;;;;23.87;2.90;;;16.90;99.90;;;;;;4994687;28;20923;-74
2022/12/25 10:16:30;;;;;;;21.97;2.03;;;17.00;99.90;;;;;;4996123;28;20828;-74
2022/12/25 10:19:26;;;;;;;22.47;2.43;;;16.80;99.90;;;;;;5011094;28;20414;-74
2022/12/25 10:21:59;;;;;;;24.17;2.47;;;16.80;99.90;;;;;;4996170;28;20446;-74
2022/12/25 10:24:39;;;;;;;23.87;2.30;;;16.80;99.90;;;;;;5012507;28;20427;-74
2022/12/25 10:27:16;;;;;;;3.20;2.00;;;16.70;99.90;;;;;;5014423;28;20958;-74
2022/12/25 10:29:44;;;;;;;3.80;1.90;;;17.00;99.90;;;;;;5014719;28;20429;-74
2022/12/25 10:32:09;;;;;;;2.57;1.63;;;17.00;99.90;;;;;;5013810;28;20473;-74
2022/12/25 10:34:38;;;;;;;2.43;2.07;;;16.90;99.90;;;;;;5014625;28;20424;-74
2022/12/25 10:37:04;;;;;;;1.97;1.77;;;16.60;99.90;;;;;;5014406;28;20257;-74
2022/12/25 10:39:29;;;;;;;3.53;2.13;;;16.50;99.90;;;;;;5013965;28;20422;-73
2022/12/25 10:42:03;;;;;;;4.80;2.10;;;16.30;99.90;;;;;;5013880;28;20276;-73
2022/12/25 10:44:29;;;;;;;2.83;2.40;;;16.40;99.90;;;;;;5013909;28;20241;-73
2022/12/25 10:46:59;;;;;;;2.33;1.67;;;16.40;99.90;;;;;;5013947;28;20850;-73
2022/12/25 10:49:37;;;;;;;3.17;1.80;;;16.30;99.90;;;;;;5014074;28;20209;-73
2022/12/25 10:52:03;;;;;;;1.83;1.53;;;16.20;99.90;;;;;;4998574;28;20472;-73
2022/12/25 10:54:31;;;;;;;3.30;2.73;;;16.00;99.90;;;;;;5013314;28;20429;-74
2022/12/25 10:56:58;;;;;;;2.60;2.10;;;15.80;99.90;;;;;;5013595;28;20436;-73
2022/12/25 10:59:26;;;;;;;3.20;2.70;;;15.70;99.90;;;;;;5013215;28;20461;-72
2022/12/25 11:01:53;;;;;;;4.67;2.90;;;15.90;99.90;;;;;;5012852;28;20504;-73
2022/12/25 11:04:27;;;;;;;5.60;3.17;;;16.00;99.90;;;;;;5013275;28;20495;-73
2022/12/25 11:07:12;;;;;;;5.17;2.77;;;15.90;99.90;;;;;;5013526;28;20421;-73
2022/12/25 11:09:39;;;;;;;5.17;2.83;;;15.80;99.90;;;;;;5013324;28;20433;-74
2022/12/25 11:12:05;;;;;;;4.47;3.00;;;15.60;99.90;;;;;;5013546;28;20483;-73
2022/12/25 11:14:30;;;;;;;3.07;2.77;;;15.60;99.90;;;;;;5013117;28;20925;-72
2022/12/25 11:17:06;;;;;;;4.37;3.20;;;15.40;99.90;;;;;;5009669;28;20421;-73
2022/12/25 11:19:32;;;;;;;2.50;2.30;;;15.30;99.90;;;;;;5012852;28;20194;-73
2022/12/25 11:22:01;;;;;;;3.77;3.17;;;15.10;99.90;;;;;;5012594;28;20537;-73
2022/12/25 11:24:29;;;;;;;3.30;2.77;;;15.00;99.90;;;;;;5013173;28;20677;-73
2022/12/25 11:26:58;;;;;;;4.20;3.17;;;15.00;99.90;;;;;;5013112;28;20451;-73
2022/12/25 11:29:41;;;;;;;3.27;2.97;;;15.10;99.90;;;;;;5012814;28;20434;-73
2022/12/25 11:32:18;;;;;;;5.20;3.10;;;15.10;99.90;;;;;;5012668;28;20479;-73
2022/12/25 11:34:46;;;;;;;6.53;3.10;;;15.00;99.90;;;;;;5012245;28;20516;-73
2022/12/25 11:37:16;;;;;;;3.63;2.80;;;14.90;99.90;;;;;;5012222;28;20422;-73
2022/12/25 11:39:42;;;;;;;3.37;3.07;;;15.10;99.90;;;;;;5012889;28;20416;-73
2022/12/25 11:42:28;;;;;;;4.20;2.83;;;15.30;99.90;;;;;;5012792;28;20449;-73
2022/12/25 11:45:17;;;;;;;3.87;2.67;;;15.30;99.90;;;;;;5012445;28;20190;-73
2022/12/25 11:48:08;;;;;;;3.73;2.53;;;15.40;99.90;;;;;;4993813;28;20414;-73
2022/12/25 11:50:44;;;;;;;2.93;2.47;;;15.50;99.90;;;;;;4998430;28;20429;-73
2022/12/25 11:53:17;;;;;;;2.70;2.10;;;15.70;99.90;;;;;;4993224;28;20485;-73
2022/12/25 11:55:53;;;;;;;2.83;2.17;;;15.90;99.90;;;;;;5010794;28;20941;-73
2022/12/25 11:58:31;;;;;;;6.13;2.00;;;16.00;99.90;;;;;;5012631;28;20898;-73
2022/12/25 12:00:59;;;;;;;2.93;1.90;;;16.30;99.90;;;;;;5012605;28;20453;-73
2022/12/25 12:03:29;;;;;;;2.60;1.60;;;16.60;99.90;;;;;;5012191;28;20416;-73
2022/12/25 12:06:07;;;;;;;3.40;1.83;;;16.80;99.90;;;;;;5012723;28;20422;-73
2022/12/25 12:08:34;;;;;;;7.30;3.30;;;17.00;99.90;;;;;;5012470;28;20425;-73
2022/12/25 12:11:17;;;;;;;4.57;2.17;;;17.20;99.90;;;;;;5012258;28;20473;-73
2022/12/25 12:14:04;;;;;;;4.83;2.27;;;17.10;99.90;;;;;;5012480;28;20509;-73
2022/12/25 12:16:30;;;;;;;5.00;1.90;;;17.00;99.90;;;;;;4992667;28;20423;-73
2022/12/25 12:18:56;;;;;;;2.60;1.67;;;16.90;99.90;;;;;;4992936;28;20414;-73
2022/12/25 12:21:28;;;;;;;1.60;1.30;;;16.80;99.90;;;;;;5010138;28;20460;-73
2022/12/25 12:24:20;;;;;;;2.73;1.30;;;16.80;99.90;;;;;;5009184;28;20196;-73
2022/12/25 12:27:00;;;;;;;2.27;1.50;;;16.60;99.90;;;;;;4992638;28;20429;-73
2022/12/25 12:29:35;;;;;;;2.27;1.50;;;16.60;99.90;;;;;;4995016;28;20444;-73
2022/12/25 12:32:03;;;;;;;6.13;2.43;;;16.60;99.90;;;;;;5011816;28;20476;-73
2022/12/25 12:34:49;;;;;;;3.20;1.80;;;16.50;99.90;;;;;;5011354;28;20524;-72
2022/12/25 12:37:25;;;;;;;2.07;1.60;;;16.40;99.90;;;;;;5012005;28;20433;-73
2022/12/25 12:39:54;;;;;;;2.10;1.17;;;16.20;99.90;;;;;;5012024;28;20433;-73
2022/12/25 12:42:24;;;;;;;1.87;1.40;;;16.10;99.90;;;;;;5011449;28;20445;-73
2022/12/25 12:44:53;;;;;;;1.70;1.07;;;16.00;99.90;;;;;;5011876;28;20434;-72
2022/12/25 12:47:36;;;;;;;1.77;1.47;;;16.00;99.90;;;;;;5011087;28;20421;-72
2022/12/25 12:50:03;;;;;;;3.30;1.37;;;16.00;99.90;;;;;;5010248;28;20456;-72
2022/12/25 12:52:39;;;;;;;2.13;1.30;;;16.00;99.90;;;;;;5005174;28;20567;-72
2022/12/25 12:55:11;;;;;;;1.53;1.30;;;16.10;99.90;;;;;;5011836;28;20450;-73
2022/12/25 12:57:40;;;;;;;1.83;1.73;;;16.20;99.90;;;;;;5011343;28;20431;-72
2022/12/25 13:00:08;;;;;;;4.27;1.60;;;16.30;99.90;;;;;;5011202;28;20414;-72
2022/12/25 13:02:59;;;;;;;1.83;1.33;;;16.20;99.90;;;;;;5010919;28;20444;-73
2022/12/25 13:05:34;;;;;;;1.97;1.60;;;16.10;99.90;;;;;;5008979;28;20433;-72
2022/12/25 13:08:00;;;;;;;2.23;1.30;;;16.10;99.90;;;;;;5010358;28;20940;-73
2022/12/25 13:10:37;;;;;;;2.60;1.40;;;16.10;99.90;;;;;;5010624;28;20426;-73
2022/12/25 13:13:25;;;;;;;2.77;1.37;;;16.10;99.90;;;;;;5003279;28;20707;-72
2022/12/25 13:15:51;;;;;;;1.73;1.33;;;16.20;99.90;;;;;;5010695;28;20421;-72
2022/12/25 13:18:17;;;;;;;2.90;1.37;;;16.20;99.90;;;;;;5008654;28;20413;-72
2022/12/25 13:20:58;;;;;;;2.57;1.73;;;16.10;99.90;;;;;;5008038;28;20247;-72
2022/12/25 13:23:27;;;;;;;3.63;1.90;;;16.10;99.90;;;;;;5010640;28;20811;-73
2022/12/25 13:25:54;;;;;;;1.60;1.43;;;16.00;99.90;;;;;;5011373;28;20410;-72
2022/12/25 13:28:34;;;;;;;2.00;1.20;;;15.90;99.90;;;;;;5011357;28;20452;-72
2022/12/25 13:31:13;;;;;;;1.60;1.50;;;15.90;99.90;;;;;;5011378;28;20461;-73
2022/12/25 13:33:44;;;;;;;2.60;1.53;;;15.90;99.90;;;;;;5011531;28;20432;-73
2022/12/25 13:36:12;;;;;;;1.40;1.27;;;15.80;99.90;;;;;;5011465;28;20905;-73
2022/12/25 13:38:42;;;;;;;2.20;1.30;;;15.80;99.90;;;;;;5011273;28;20445;-72
2022/12/25 13:43:57;;;;;;;1.40;1.27;;;15.80;99.90;;;;;;5011637;28;20425;-73
2022/12/25 13:46:25;;;;;;;1.30;1.20;;;15.80;99.90;;;;;;5011242;28;20427;-73
2022/12/25 13:48:58;;;;;;;1.40;1.00;;;15.80;99.90;;;;;;5011105;28;20592;-72
2022/12/25 13:51:23;;;;;;;1.50;1.40;;;15.70;99.90;;;;;;5010628;28;20457;-71
2022/12/25 13:53:49;;;;;;;2.73;2.00;;;15.70;99.90;;;;;;5011067;28;20947;-72
2022/12/25 13:56:15;;;;;;;1.33;1.17;;;15.60;99.90;;;;;;5011114;28;20174;-72
2022/12/25 13:58:41;;;;;;;4.73;1.10;;;15.60;99.90;;;;;;5012002;28;20214;-73
2022/12/25 14:01:10;;;;;;;3.60;2.77;;;15.60;99.90;;;;;;5014621;28;20579;-72
2022/12/25 14:03:40;;;;;;;2.33;1.43;;;15.50;99.90;;;;;;5014629;28;20425;-72
2022/12/25 14:06:24;;;;;;;1.53;1.43;;;15.50;99.90;;;;;;5015082;28;20956;-72
2022/12/25 14:08:51;;;;;;;2.20;2.00;;;15.40;99.90;;;;;;5015055;28;20914;-73
2022/12/25 14:11:19;;;;;;;2.80;1.20;;;15.40;99.90;;;;;;4996904;28;20457;-72
2022/12/25 14:13:47;;;;;;;1.30;1.20;;;15.40;99.90;;;;;;5014652;28;20420;-72
2022/12/25 14:16:18;;;;;;;1.23;1.13;;;15.50;99.90;;;;;;5014752;28;20413;-72
2022/12/25 14:18:55;;;;;;;1.70;1.60;;;15.50;99.90;;;;;;5014532;28;20409;-72
2022/12/25 14:21:31;;;;;;;1.50;1.10;;;15.40;99.90;;;;;;5014368;28;20552;-73
2022/12/25 14:23:57;;;;;;;1.77;1.20;;;15.30;99.90;;;;;;5014887;28;20413;-73
2022/12/25 14:26:27;;;;;;;2.37;1.50;;;15.30;99.90;;;;;;5014494;28;20421;-72
2022/12/25 14:29:04;;;;;;;1.83;1.43;;;15.30;99.90;;;;;;5014501;28;21149;-72
2022/12/25 14:31:31;;;;;;;1.60;1.50;;;15.20;99.90;;;;;;4996060;28;20965;-72
2022/12/25 14:34:00;;;;;;;1.87;1.77;;;15.10;99.90;;;;;;5014338;28;20477;-72
2022/12/25 14:36:26;;;;;;;4.43;1.70;;;15.00;99.90;;;;;;5014004;28;20421;-72
2022/12/25 14:39:04;;;;;;;4.67;1.80;;;14.90;99.90;;;;;;5014252;28;20436;-73
2022/12/25 14:41:38;;;;;;;2.07;1.50;;;14.90;99.90;;;;;;5013777;28;20922;-72
2022/12/25 14:44:39;;;;;;;3.63;1.47;;;14.80;99.90;;;;;;5014399;28;20416;-73
2022/12/25 14:47:15;;;;;;;3.57;1.73;;;14.70;99.90;;;;;;5008451;28;20791;-73
2022/12/25 14:49:41;;;;;;;1.90;1.60;;;14.50;99.90;;;;;;5015503;28;20408;-72
2022/12/25 14:52:43;;;;;;;7.30;2.23;;;14.40;99.90;;;;;;5014713;28;20476;-73
2022/12/25 14:55:19;;;;;;;1.83;1.73;;;14.20;99.90;;;;;;5015035;28;20471;-73
2022/12/25 14:58:06;;;;;;;2.10;1.90;;;14.00;99.90;;;;;;5014234;28;20413;-72
2022/12/25 15:00:36;;;;;;;3.57;2.23;;;13.70;99.90;;;;;;5013849;28;20417;-73
2022/12/25 15:03:04;;;;;;;5.00;2.00;;;13.50;99.90;;;;;;5013536;28;20479;-73
2022/12/25 15:05:38;;;;;;;4.63;2.23;;;13.30;99.90;;;;;;5013838;28;20471;-73
2022/12/25 15:08:12;;;;;;;2.80;1.87;;;13.10;99.90;;;;;;5013589;28;20584;-72
2022/12/25 15:10:39;;;;;;;3.47;2.83;;;13.00;99.90;;;;;;5013195;28;20431;-72
2022/12/25 15:13:04;;;;;;;4.20;2.70;;;12.90;99.90;;;;;;5013208;28;20480;-72
2022/12/25 15:15:31;;;;;;;2.10;1.90;;;12.80;99.90;;;;;;5013454;28;20414;-72
2022/12/25 15:17:59;;;;;;;5.23;2.83;;;12.70;99.90;;;;;;5013407;28;20257;-72
2022/12/25 15:20:31;;;;;;;1.50;1.40;;;12.60;99.90;;;;;;5013340;28;20468;-73
2022/12/25 15:22:59;;;;;;;2.60;1.90;;;12.40;99.90;;;;;;5013402;28;20929;-72
2022/12/25 15:25:25;;;;;;;5.00;2.77;;;12.30;99.90;;;;;;5013193;28;20490;-71
2022/12/25 15:27:50;;;;;;;2.83;2.03;;;12.20;99.90;;;;;;5013487;28;20504;-71
2022/12/25 15:30:16;;;;;;;3.77;2.27;;;12.10;99.90;;;;;;5013420;28;20663;-72
2022/12/25 15:32:41;;;;;;;2.43;2.10;;;12.10;99.90;;;;;;5012892;28;20211;-72